createdAt,value
2023-04-04T00:04:53.261Z,212078.00
2023-04-04T00:11:00.073Z,212066.00
2023-04-04T00:17:02.406Z,212058.00
2023-04-04T00:23:04.784Z,212017.00
2023-04-04T00:29:07.355Z,212003.00
2023-04-04T00:35:09.612Z,211977.00
2023-04-04T00:41:12.504Z,211983.00
2023-04-04T00:47:15.295Z,211977.00
2023-04-04T00:53:18.276Z,216007.00
2023-04-04T00:59:20.831Z,215965.00
2023-04-04T01:05:23.561Z,215937.00
2023-04-04T01:11:26.943Z,215903.00
2023-04-04T01:17:30.295Z,215856.00
2023-04-04T01:24:01.654Z,215828.00
2023-04-04T01:30:26.279Z,215797.00
2023-04-04T01:36:54.334Z,215822.00
2023-04-04T01:42:58.175Z,215816.00
2023-04-04T01:49:03.025Z,215816.00
2023-04-04T01:55:09.328Z,215736.00
2023-04-04T02:01:12.596Z,215714.00
2023-04-04T02:07:15.186Z,215686.00
2023-04-04T02:13:18.731Z,215632.00
2023-04-04T02:19:25.173Z,215618.00
2023-04-04T02:25:28.171Z,215646.00
2023-04-04T02:31:30.947Z,215660.00
2023-04-04T02:37:33.858Z,215654.00
2023-04-04T02:43:37.916Z,215612.00
2023-04-04T02:49:43.586Z,215591.00
2023-04-04T02:55:47.695Z,215605.00
2023-04-04T03:01:50.847Z,215585.00
2023-04-04T03:07:58.007Z,215591.00
2023-04-04T03:14:01.952Z,215571.00
2023-04-04T03:20:12.824Z,215512.00
2023-04-04T03:26:15.618Z,215498.00
2023-04-04T03:32:18.690Z,215518.00
2023-04-04T03:38:21.123Z,215526.00
2023-04-04T03:44:23.345Z,215484.00
2023-04-04T03:50:25.922Z,215451.00
2023-04-04T03:56:28.963Z,215429.00
2023-04-04T04:02:31.553Z,215437.00
2023-04-04T04:08:33.806Z,215477.00
2023-04-04T04:14:36.044Z,215512.00
2023-04-04T04:20:39.525Z,215492.00
2023-04-04T04:26:41.858Z,215492.00
2023-04-04T04:32:44.683Z,215451.00
2023-04-04T04:38:47.981Z,215465.00
2023-04-04T04:44:51.850Z,215484.00
2023-04-04T04:50:54.778Z,215518.00
2023-04-04T04:57:12.796Z,215518.00
2023-04-04T05:03:18.334Z,215518.00
2023-04-04T05:09:25.255Z,215599.00
2023-04-04T05:15:29.528Z,215591.00
2023-04-04T05:21:32.903Z,215605.00
2023-04-04T05:27:37.529Z,215612.00
2023-04-04T05:33:39.917Z,215646.00
2023-04-04T05:39:56.086Z,215640.00
2023-04-04T05:45:59.939Z,215660.00
2023-04-04T05:52:04.323Z,215722.00
2023-04-04T05:58:07.313Z,215748.00
2023-04-04T06:04:20.613Z,215755.00
2023-04-04T06:10:23.439Z,215789.00
2023-04-04T06:16:27.040Z,215828.00
2023-04-04T07:48:33.344Z,215694.00
2023-04-04T07:54:38.052Z,215680.00
2023-04-04T08:00:43.935Z,215624.00
2023-04-04T08:06:47.470Z,215498.00
2023-04-04T08:12:50.574Z,215451.00
2023-04-04T08:18:53.957Z,215349.00
2023-04-04T08:24:56.387Z,215275.00
2023-04-04T08:30:59.282Z,215255.00
2023-04-04T08:37:02.425Z,215241.00
2023-04-04T08:43:06.557Z,215247.00
2023-04-04T08:49:09.731Z,215255.00
2023-04-04T08:55:15.649Z,215283.00
2023-04-04T09:01:21.237Z,215283.00
2023-04-04T09:07:25.549Z,215381.00
2023-04-04T09:13:28.319Z,215409.00
2023-04-04T09:19:33.150Z,215429.00
2023-04-04T09:25:37.599Z,215443.00
2023-04-04T09:31:40.250Z,215409.00
2023-04-04T09:37:42.959Z,215443.00
2023-04-04T09:43:46.276Z,215409.00
2023-04-04T09:49:50.134Z,215465.00
2023-04-04T09:55:55.365Z,215417.00
2023-04-04T10:01:57.813Z,215429.00
2023-04-04T10:08:03.682Z,215395.00
2023-04-04T10:14:07.176Z,215437.00
2023-04-04T10:20:10.900Z,215465.00
2023-04-04T10:26:14.234Z,215512.00
2023-04-04T10:32:27.683Z,215538.00
2023-04-04T10:38:34.034Z,215557.00
2023-04-04T10:44:40.417Z,215557.00
2023-04-04T10:50:43.440Z,215612.00
2023-04-04T10:56:49.027Z,215599.00
2023-04-04T11:03:00.534Z,215599.00
2023-04-04T11:09:03.383Z,215538.00
2023-04-04T11:15:13.933Z,215512.00
2023-04-04T11:21:24.580Z,215571.00
2023-04-04T11:27:27.032Z,215585.00
2023-04-04T11:33:32.590Z,215571.00
2023-04-04T11:39:35.155Z,215571.00
2023-04-04T11:45:39.508Z,215518.00
2023-04-04T11:51:43.240Z,215571.00
2023-04-04T11:57:49.877Z,215518.00
2023-04-04T12:04:01.577Z,215498.00
2023-04-04T12:10:04.361Z,215498.00
2023-04-04T12:16:08.805Z,215571.00
2023-04-04T12:22:21.325Z,215571.00
2023-04-04T12:28:25.301Z,215571.00
2023-04-04T12:34:36.418Z,215546.00
2023-04-04T12:40:39.857Z,215557.00
2023-04-04T12:46:43.050Z,215518.00
2023-04-04T12:52:47.163Z,215512.00
2023-04-04T12:58:50.851Z,215546.00
2023-04-04T13:05:00.725Z,215565.00
2023-04-04T13:11:06.604Z,215565.00
2023-04-04T13:17:10.353Z,215512.00
2023-04-04T13:23:15.074Z,215492.00
2023-04-04T13:29:17.336Z,215492.00
2023-04-04T13:35:19.903Z,215484.00
2023-04-04T13:41:25.097Z,215492.00
2023-04-04T13:53:35.452Z,215492.00
2023-04-04T13:59:38.079Z,215465.00
2023-04-04T14:05:41.182Z,215484.00
2023-04-04T14:11:50.175Z,215465.00
2023-04-04T14:17:53.292Z,215492.00
2023-04-04T14:23:59.296Z,215518.00
2023-04-04T14:30:01.693Z,215518.00
2023-04-04T14:36:04.425Z,215518.00
2023-04-04T14:48:32.952Z,215612.00
2023-04-04T14:54:36.180Z,215660.00
2023-04-04T15:00:47.887Z,215666.00
2023-04-04T15:06:50.750Z,215646.00
2023-04-04T15:12:53.336Z,215686.00
2023-04-04T15:18:56.190Z,215680.00
2023-04-04T15:24:58.617Z,215624.00
2023-04-04T15:31:02.713Z,215626.00
2023-04-04T15:37:07.979Z,215612.00
2023-04-04T15:43:10.984Z,215605.00
2023-04-04T15:49:14.811Z,215585.00
2023-04-04T15:55:17.469Z,215605.00
2023-04-04T16:01:23.717Z,215654.00
2023-04-04T16:07:27.212Z,215618.00
2023-04-04T16:13:30.261Z,215571.00
2023-04-04T16:19:32.992Z,215498.00
2023-04-04T16:25:35.228Z,215465.00
2023-04-04T16:31:37.473Z,215465.00
2023-04-04T16:37:40.830Z,215498.00
2023-04-04T16:43:43.872Z,215512.00
2023-04-04T16:49:48.377Z,215518.00
2023-04-04T16:55:51.063Z,215498.00
2023-04-04T17:01:57.267Z,215465.00
2023-04-04T17:08:02.380Z,215465.00
2023-04-04T17:14:04.676Z,215465.00
2023-04-04T17:20:07.792Z,215465.00
2023-04-04T17:39:26.201Z,215465.00
2023-04-04T17:45:29.913Z,215477.00
2023-04-04T17:51:32.458Z,215484.00
2023-04-04T17:57:34.768Z,215498.00
2023-04-04T18:03:37.922Z,215585.00
2023-04-04T18:09:42.356Z,215571.00
2023-04-04T18:15:45.073Z,215599.00
2023-04-04T18:21:48.800Z,215646.00
2023-04-04T18:27:51.391Z,215674.00
2023-04-04T18:33:54.009Z,215694.00
2023-04-04T18:39:56.270Z,215714.00
2023-04-04T18:46:00.094Z,215722.00
2023-04-04T18:52:02.343Z,215767.00
2023-04-04T18:58:04.897Z,215775.00
2023-04-04T19:04:08.991Z,215803.00
2023-04-04T19:10:11.340Z,215864.00
2023-04-04T19:16:13.566Z,215903.00
2023-04-04T19:22:16.247Z,215909.00
2023-04-04T19:28:18.694Z,215951.00
2023-04-04T19:34:21.090Z,215957.00
2023-04-04T19:40:50.072Z,215971.00
2023-04-04T19:46:54.321Z,215999.00
2023-04-04T19:52:57.054Z,211977.00
2023-04-04T19:59:02.404Z,211997.00
2023-04-04T20:05:29.916Z,212031.00
2023-04-04T20:11:36.919Z,212078.00
2023-04-04T20:17:39.008Z,212011.00
2023-04-04T20:23:46.233Z,216026.00
2023-04-04T20:29:53.597Z,215979.00
2023-04-04T20:35:56.180Z,215993.00
2023-04-04T20:41:58.804Z,216001.00
2023-04-04T20:48:05.838Z,215979.00
2023-04-04T20:54:09.738Z,215965.00
2023-04-04T21:00:30.546Z,215979.00
2023-04-04T21:06:33.126Z,215937.00
2023-04-04T21:12:35.525Z,215965.00
2023-04-04T21:18:38.941Z,215957.00
2023-04-04T21:24:41.749Z,215923.00
2023-04-04T21:30:46.761Z,215909.00
2023-04-04T21:36:50.728Z,215923.00
2023-04-04T21:42:52.884Z,215903.00
2023-04-04T21:48:56.362Z,215931.00
2023-04-04T21:54:58.788Z,215870.00
2023-04-04T22:01:01.237Z,215828.00
2023-04-04T22:07:03.626Z,215856.00
2023-04-04T22:13:05.876Z,215836.00
2023-04-04T22:19:11.893Z,215822.00
2023-04-04T22:25:14.312Z,215828.00
2023-04-04T22:31:16.966Z,215828.00
2023-04-04T22:37:22.242Z,215828.00
2023-04-04T22:43:26.041Z,215822.00
2023-04-04T22:49:28.391Z,215822.00
2023-04-04T22:55:31.838Z,215828.00
2023-04-04T23:01:34.138Z,215836.00
2023-04-04T23:07:37.055Z,215836.00
2023-04-04T23:13:39.201Z,215816.00
2023-04-04T23:19:42.249Z,215848.00
2023-04-04T23:25:45.264Z,215848.00
2023-04-04T23:31:47.422Z,215816.00
2023-04-04T23:37:49.588Z,215816.00
2023-04-04T23:43:52.265Z,215775.00
2023-04-04T23:49:55.412Z,215797.00
2023-04-04T23:55:57.636Z,215781.00
